createdAt,value
2018-06-03T00:01:08.993Z,5.50
2018-06-03T00:03:37.160Z,5.20
2018-06-03T00:06:05.314Z,4.83
2018-06-03T00:08:33.484Z,5.07
2018-06-03T00:11:01.720Z,4.73
2018-06-03T00:13:29.895Z,5.10
2018-06-03T00:15:58.108Z,5.50
2018-06-03T00:18:26.273Z,5.30
2018-06-03T00:21:05.847Z,6.03
2018-06-03T00:23:33.991Z,5.20
2018-06-03T00:26:02.135Z,5.20
2018-06-03T00:28:30.299Z,4.70
2018-06-03T00:30:58.491Z,4.60
2018-06-03T00:33:26.622Z,4.67
2018-06-03T00:36:00.158Z,4.80
2018-06-03T00:38:28.317Z,4.70
2018-06-03T00:40:56.538Z,5.60
2018-06-03T00:43:24.695Z,5.10
2018-06-03T00:45:52.855Z,4.30
2018-06-03T00:48:21.009Z,4.70
2018-06-03T00:50:49.183Z,5.33
2018-06-03T00:53:17.332Z,4.97
2018-06-03T00:55:45.524Z,5.10
2018-06-03T00:58:13.693Z,4.63
2018-06-03T01:00:41.859Z,5.10
2018-06-03T01:03:10.031Z,5.10
2018-06-03T01:05:38.176Z,5.20
2018-06-03T01:08:06.368Z,4.80
2018-06-03T01:10:34.528Z,4.40
2018-06-03T01:13:02.729Z,4.70
2018-06-03T01:15:30.932Z,4.93
2018-06-03T01:17:59.083Z,5.57
2018-06-03T01:20:27.251Z,4.53
2018-06-03T01:22:55.435Z,4.87
2018-06-03T01:25:23.605Z,5.17
2018-06-03T01:27:51.555Z,5.23
2018-06-03T01:30:19.490Z,5.43
2018-06-03T01:32:47.644Z,4.93
2018-06-03T01:35:15.786Z,4.55
2018-06-03T01:37:43.937Z,5.43
2018-06-03T01:40:12.092Z,5.30
2018-06-03T01:42:40.255Z,5.27
2018-06-03T01:45:08.413Z,4.30
2018-06-03T01:47:36.617Z,5.13
2018-06-03T01:50:04.768Z,5.50
2018-06-03T01:52:32.935Z,4.57
2018-06-03T01:55:01.129Z,4.37
2018-06-03T01:57:29.319Z,4.43
2018-06-03T01:59:57.456Z,4.43
2018-06-03T02:02:25.616Z,5.37
2018-06-03T02:04:53.780Z,4.80
2018-06-03T02:07:21.964Z,5.20
2018-06-03T02:09:50.155Z,5.47
2018-06-03T02:12:18.338Z,5.07
2018-06-03T02:14:46.495Z,5.57
2018-06-03T02:17:14.656Z,4.67
2018-06-03T02:19:42.854Z,5.25
2018-06-03T02:22:11.167Z,5.33
2018-06-03T02:24:39.314Z,5.73
2018-06-03T02:27:07.522Z,4.80
2018-06-03T02:29:35.660Z,5.10
2018-06-03T02:32:03.808Z,5.83
2018-06-03T02:34:31.990Z,5.20
2018-06-03T02:37:00.152Z,5.23
2018-06-03T02:39:28.320Z,4.80
2018-06-03T02:41:56.467Z,5.22
2018-06-03T02:44:24.624Z,4.73
2018-06-03T02:46:52.793Z,4.72
2018-06-03T02:49:20.946Z,5.57
2018-06-03T02:59:04.433Z,4.73
2018-06-03T03:01:32.637Z,4.67
2018-06-03T03:04:00.792Z,4.58
2018-06-03T03:06:28.990Z,5.20
2018-06-03T03:08:56.891Z,5.30
2018-06-03T03:11:25.053Z,5.33
2018-06-03T03:13:53.235Z,4.50
2018-06-03T03:16:21.402Z,4.77
2018-06-03T03:18:49.575Z,4.27
2018-06-03T03:21:17.727Z,5.20
2018-06-03T03:23:45.904Z,4.93
2018-06-03T03:26:14.125Z,5.50
2018-06-03T03:28:42.303Z,5.03
2018-06-03T03:31:10.472Z,6.00
2018-06-03T03:33:38.597Z,5.30
2018-06-03T03:36:06.752Z,5.77
2018-06-03T03:38:34.914Z,4.37
2018-06-03T03:41:03.061Z,5.43
2018-06-03T03:43:31.218Z,4.97
2018-06-03T03:45:59.379Z,5.30
2018-06-03T03:48:27.556Z,4.95
2018-06-03T03:50:55.725Z,5.37
2018-06-03T03:53:23.887Z,4.40
2018-06-03T03:55:52.055Z,4.90
2018-06-03T03:58:20.631Z,4.80
2018-06-03T04:00:48.800Z,5.00
2018-06-03T04:03:16.943Z,5.17
2018-06-03T04:05:45.336Z,4.90
2018-06-03T04:08:13.475Z,5.07
2018-06-03T04:10:41.647Z,5.07
2018-06-03T04:13:09.830Z,5.70
2018-06-03T04:15:38.000Z,4.80
2018-06-03T04:18:06.149Z,5.87
2018-06-03T04:20:34.341Z,5.30
2018-06-03T04:23:02.269Z,4.70
2018-06-03T04:25:30.430Z,5.23
2018-06-03T04:27:58.580Z,4.87
2018-06-03T04:30:26.783Z,4.93
2018-06-03T04:32:54.976Z,5.20
2018-06-03T04:35:23.092Z,4.80
2018-06-03T04:37:51.252Z,5.30
2018-06-03T04:40:19.429Z,5.50
2018-06-03T04:42:47.607Z,5.35
2018-06-03T04:45:15.742Z,5.50
2018-06-03T04:47:43.879Z,5.60
2018-06-03T04:50:12.047Z,5.70
2018-06-03T04:52:40.443Z,5.57
2018-06-03T04:55:08.645Z,5.87
2018-06-03T04:57:36.745Z,6.40
2018-06-03T05:00:05.954Z,5.90
2018-06-03T05:02:34.121Z,6.10
2018-06-03T05:05:02.288Z,6.20
2018-06-03T05:07:30.434Z,6.23
2018-06-03T05:09:58.616Z,6.03
2018-06-03T05:12:26.537Z,5.73
2018-06-03T05:14:54.772Z,5.73
2018-06-03T05:17:22.944Z,6.17
2018-06-03T05:19:51.136Z,6.00
2018-06-03T05:22:19.311Z,5.93
2018-06-03T05:24:47.452Z,6.33
2018-06-03T05:27:15.648Z,6.12
2018-06-03T05:29:43.574Z,5.60
2018-06-03T05:32:11.835Z,6.27
2018-06-03T05:34:39.980Z,6.40
2018-06-03T05:37:08.164Z,6.42
2018-06-03T05:39:36.314Z,6.50
2018-06-03T05:42:04.524Z,6.00
2018-06-03T05:44:32.679Z,5.80
2018-06-03T05:47:00.843Z,5.67
2018-06-03T05:49:29.012Z,5.90
2018-06-03T05:51:57.007Z,6.40
2018-06-03T05:54:25.122Z,7.57
2018-06-03T05:56:53.288Z,6.87
2018-06-03T05:59:21.451Z,6.95
2018-06-03T06:01:49.604Z,6.77
2018-06-03T06:04:17.761Z,6.97
2018-06-03T06:06:45.906Z,6.90
2018-06-03T06:09:14.096Z,6.80
2018-06-03T06:11:42.308Z,7.50
2018-06-03T06:14:10.489Z,7.27
2018-06-03T06:16:38.645Z,7.97
2018-06-03T06:19:06.787Z,7.10
2018-06-03T06:21:34.958Z,7.90
2018-06-03T06:24:03.166Z,7.60
2018-06-03T06:26:31.335Z,6.90
2018-06-03T06:28:59.543Z,7.20
2018-06-03T06:31:27.664Z,7.70
2018-06-03T06:33:55.855Z,7.20
2018-06-03T06:36:24.074Z,7.77
2018-06-03T06:38:52.196Z,7.20
2018-06-03T06:41:20.359Z,7.70
2018-06-03T06:43:48.568Z,6.62
2018-06-03T06:46:16.732Z,7.60
2018-06-03T06:48:44.875Z,7.07
2018-06-03T06:51:13.041Z,7.13
2018-06-03T06:53:41.210Z,7.03
2018-06-03T06:56:09.366Z,6.90
2018-06-03T06:58:37.529Z,7.00
2018-06-03T07:01:05.672Z,6.80
2018-06-03T07:03:33.821Z,7.40
2018-06-03T07:06:02.030Z,6.83
2018-06-03T07:08:30.192Z,6.70
2018-06-03T07:10:58.391Z,7.00
2018-06-03T07:13:26.542Z,7.50
2018-06-03T07:15:54.706Z,6.83
2018-06-03T07:18:22.903Z,6.90
2018-06-03T07:20:51.138Z,7.17
2018-06-03T07:23:19.361Z,7.07
2018-06-03T07:25:47.475Z,7.00
2018-06-03T07:28:15.650Z,6.30
2018-06-03T07:30:43.816Z,6.03
2018-06-03T07:33:11.986Z,5.70
2018-06-03T07:35:40.183Z,6.63
2018-06-03T07:38:08.368Z,5.17
2018-06-03T07:40:36.522Z,6.20
2018-06-03T07:43:04.689Z,6.07
2018-06-03T07:45:32.851Z,6.80
2018-06-03T07:48:01.022Z,6.37
2018-06-03T07:50:29.197Z,6.20
2018-06-03T07:52:57.347Z,6.37
2018-06-03T07:55:25.479Z,5.90
2018-06-03T07:57:53.400Z,6.13
2018-06-03T08:00:21.568Z,5.95
2018-06-03T08:02:49.734Z,5.97
2018-06-03T08:06:16.165Z,5.23
2018-06-03T08:08:44.356Z,6.43
2018-06-03T08:11:12.552Z,5.70
2018-06-03T08:13:40.774Z,6.43
2018-06-03T08:16:08.899Z,5.80
2018-06-03T08:18:37.088Z,6.17
2018-06-03T08:21:05.261Z,6.60
2018-06-03T08:23:33.564Z,5.90
2018-06-03T08:26:01.714Z,5.30
2018-06-03T08:28:29.894Z,5.13
2018-06-03T08:30:58.076Z,6.03
2018-06-03T08:33:26.221Z,5.50
2018-06-03T08:35:54.452Z,5.00
2018-06-03T08:38:24.366Z,4.92
2018-06-03T08:40:52.624Z,5.00
2018-06-03T08:43:20.792Z,5.40
2018-06-03T08:45:48.967Z,5.70
2018-06-03T08:48:17.143Z,5.00
2018-06-03T08:50:45.303Z,5.45
2018-06-03T08:53:13.444Z,4.93
2018-06-03T08:55:41.615Z,5.23
2018-06-03T08:58:09.771Z,5.63
2018-06-03T09:00:37.946Z,5.15
2018-06-03T09:03:06.123Z,6.13
2018-06-03T09:05:34.298Z,5.40
2018-06-03T09:08:02.477Z,5.10
2018-06-03T09:10:30.982Z,5.03
2018-06-03T09:12:59.156Z,6.27
2018-06-03T09:15:27.324Z,5.33
2018-06-03T09:17:55.508Z,6.17
2018-06-03T09:20:23.692Z,5.30
2018-06-03T09:22:51.816Z,5.67
2018-06-03T09:25:19.999Z,8.03
2018-06-03T09:27:48.218Z,5.53
2018-06-03T09:30:16.424Z,5.90
2018-06-03T09:32:44.593Z,5.87
2018-06-03T09:35:12.773Z,5.43
2018-06-03T09:37:43.510Z,5.70
2018-06-03T09:40:11.654Z,6.10
2018-06-03T09:42:39.583Z,6.00
2018-06-03T09:45:07.756Z,5.23
2018-06-03T09:47:35.907Z,5.50
2018-06-03T09:50:04.066Z,5.60
2018-06-03T09:52:32.284Z,5.40
2018-06-03T09:55:00.431Z,5.77
2018-06-03T09:57:28.730Z,5.53
2018-06-03T09:59:56.900Z,5.73
2018-06-03T10:02:25.040Z,5.00
2018-06-03T10:04:53.241Z,4.77
2018-06-03T10:07:21.416Z,5.27
2018-06-03T10:09:49.614Z,5.30
2018-06-03T10:12:17.766Z,4.87
2018-06-03T10:14:45.927Z,10.53
2018-06-03T10:17:14.128Z,6.15
2018-06-03T10:19:42.309Z,6.20
2018-06-03T10:22:10.473Z,7.20
2018-06-03T10:24:38.619Z,5.93
2018-06-03T10:27:06.785Z,7.17
2018-06-03T10:29:34.964Z,5.93
2018-06-03T10:32:03.100Z,6.23
2018-06-03T10:34:31.299Z,6.03
2018-06-03T10:36:59.439Z,6.30
2018-06-03T10:39:27.760Z,5.80
2018-06-03T10:41:55.944Z,5.77
2018-06-03T10:44:24.135Z,5.57
2018-06-03T10:46:52.284Z,6.20
2018-06-03T10:49:20.464Z,6.10
2018-06-03T10:51:48.607Z,5.47
2018-06-03T10:54:16.534Z,5.10
2018-06-03T10:56:44.655Z,5.43
2018-06-03T10:59:12.854Z,5.70
2018-06-03T11:01:40.994Z,6.07
2018-06-03T11:04:09.265Z,6.47
2018-06-03T11:06:37.440Z,5.57
2018-06-03T11:09:05.961Z,5.13
2018-06-03T11:11:34.120Z,5.33
2018-06-03T11:14:02.301Z,5.67
2018-06-03T11:16:30.432Z,5.53
2018-06-03T11:18:58.572Z,5.50
2018-06-03T11:21:26.748Z,6.03
2018-06-03T11:23:54.926Z,4.90
2018-06-03T11:26:23.092Z,5.87
2018-06-03T11:28:51.292Z,4.90
2018-06-03T11:31:19.467Z,5.53
2018-06-03T11:33:47.644Z,5.00
2018-06-03T11:36:15.833Z,4.80
2018-06-03T11:38:44.000Z,5.67
2018-06-03T11:41:12.168Z,4.77
2018-06-03T11:43:40.349Z,5.23
2018-06-03T11:46:08.552Z,4.90
2018-06-03T11:48:36.688Z,4.83
2018-06-03T11:51:04.872Z,4.83
2018-06-03T11:53:33.033Z,4.67
2018-06-03T11:56:01.200Z,4.92
2018-06-03T11:58:41.803Z,4.93
2018-06-03T12:01:10.128Z,5.47
2018-06-03T12:03:38.277Z,4.97
2018-06-03T12:06:06.485Z,4.80
2018-06-03T12:08:34.667Z,4.90
2018-06-03T12:11:02.828Z,5.80
2018-06-03T12:13:31.020Z,5.07
2018-06-03T12:15:59.220Z,4.33
2018-06-03T12:18:27.393Z,5.10
2018-06-03T12:20:55.600Z,4.13
2018-06-03T12:23:23.751Z,4.80
2018-06-03T12:25:51.935Z,4.63
2018-06-03T12:28:20.186Z,5.10
2018-06-03T12:30:48.328Z,4.37
2018-06-03T12:33:16.515Z,4.20
2018-06-03T12:35:44.683Z,4.70
2018-06-03T12:38:12.879Z,4.70
2018-06-03T12:40:41.056Z,5.00
2018-06-03T12:43:09.215Z,4.17
2018-06-03T12:45:37.358Z,3.93
2018-06-03T12:48:05.815Z,4.57
2018-06-03T12:50:33.979Z,4.47
2018-06-03T12:53:02.157Z,4.17
2018-06-03T12:55:30.301Z,4.33
2018-06-03T12:57:58.472Z,4.57
2018-06-03T13:00:26.620Z,4.17
2018-06-03T13:02:54.794Z,4.33
2018-06-03T13:05:22.965Z,4.40
2018-06-03T13:07:51.151Z,4.50
2018-06-03T13:10:19.346Z,4.80
2018-06-03T13:12:47.513Z,4.13
2018-06-03T13:15:15.710Z,5.30
2018-06-03T13:17:43.927Z,4.50
2018-06-03T13:20:12.055Z,4.23
2018-06-03T13:22:40.267Z,4.28
2018-06-03T13:25:08.427Z,4.90
2018-06-03T13:27:36.595Z,4.13
2018-06-03T13:30:05.120Z,4.40
2018-06-03T13:32:33.332Z,4.80
2018-06-03T13:35:01.516Z,4.27
2018-06-03T13:37:29.742Z,4.60
2018-06-03T13:39:57.870Z,4.33
2018-06-03T13:42:25.766Z,4.40
2018-06-03T13:44:53.936Z,4.33
2018-06-03T13:47:22.083Z,4.63
2018-06-03T13:49:50.263Z,4.80
2018-06-03T13:52:18.167Z,4.70
2018-06-03T13:54:46.340Z,4.63
2018-06-03T13:57:14.518Z,4.00
2018-06-03T13:59:42.679Z,4.30
2018-06-03T14:02:10.912Z,4.03
2018-06-03T14:04:39.075Z,4.03
2018-06-03T14:07:07.222Z,4.20
2018-06-03T14:09:35.389Z,4.10
2018-06-03T14:12:03.515Z,5.20
2018-06-03T14:14:31.704Z,6.10
2018-06-03T14:16:59.957Z,4.20
2018-06-03T14:19:28.132Z,3.90
2018-06-03T14:21:56.305Z,4.40
2018-06-03T14:24:24.490Z,3.60
2018-06-03T14:26:52.624Z,4.80
2018-06-03T14:29:20.782Z,3.43
2018-06-03T14:31:48.961Z,4.13
2018-06-03T14:34:17.097Z,4.60
2018-06-03T14:36:45.233Z,4.00
2018-06-03T14:39:13.418Z,4.30
2018-06-03T14:41:41.330Z,4.10
2018-06-03T14:44:09.492Z,3.77
2018-06-03T14:46:37.640Z,3.60
2018-06-03T14:49:05.807Z,4.37
2018-06-03T14:51:33.982Z,3.80
2018-06-03T14:54:02.147Z,3.90
2018-06-03T14:56:30.323Z,4.37
2018-06-03T14:58:58.404Z,4.00
2018-06-03T15:01:26.587Z,4.30
2018-06-03T15:03:54.711Z,4.63
2018-06-03T15:06:22.882Z,4.07
2018-06-03T15:08:51.059Z,4.43
2018-06-03T15:11:19.235Z,4.20
2018-06-03T15:13:47.413Z,4.73
2018-06-03T15:16:15.554Z,4.80
2018-06-03T15:18:43.735Z,4.53
2018-06-03T15:21:11.910Z,3.73
2018-06-03T15:23:40.095Z,4.22
2018-06-03T15:26:08.259Z,3.90
2018-06-03T15:28:36.454Z,3.90
2018-06-03T15:31:04.620Z,3.67
2018-06-03T15:33:32.784Z,3.90
2018-06-03T15:36:00.944Z,4.17
2018-06-03T15:38:29.084Z,4.20
2018-06-03T15:40:57.062Z,3.80
2018-06-03T15:43:25.226Z,2.97
2018-06-03T15:45:53.421Z,3.77
2018-06-03T15:48:21.559Z,3.60
2018-06-03T15:50:49.727Z,3.90
2018-06-03T15:53:17.866Z,3.50
2018-06-03T15:55:46.061Z,3.50
2018-06-03T15:58:14.236Z,4.17
2018-06-03T16:00:42.399Z,3.90
2018-06-03T16:03:10.569Z,4.40
2018-06-03T16:05:38.683Z,4.23
2018-06-03T16:08:06.814Z,5.03
2018-06-03T16:10:34.988Z,4.83
2018-06-03T16:13:03.166Z,3.60
2018-06-03T16:15:31.320Z,3.70
2018-06-03T16:17:59.507Z,3.73
2018-06-03T16:20:27.677Z,4.00
2018-06-03T16:22:55.815Z,3.53
2018-06-03T16:25:23.987Z,3.50
2018-06-03T16:27:52.151Z,3.90
2018-06-03T16:30:20.305Z,3.30
2018-06-03T16:32:48.471Z,3.30
2018-06-03T16:35:16.611Z,3.10
2018-06-03T16:37:44.759Z,3.13
2018-06-03T16:40:12.948Z,3.55
2018-06-03T16:42:41.100Z,3.10
2018-06-03T16:45:09.255Z,3.30
2018-06-03T16:47:37.456Z,3.70
2018-06-03T16:50:06.107Z,3.30
2018-06-03T16:52:34.273Z,3.40
2018-06-03T16:55:02.430Z,3.60
2018-06-03T16:57:30.558Z,3.70
2018-06-03T16:59:58.487Z,3.60
2018-06-03T17:02:26.666Z,3.17
2018-06-03T17:04:54.844Z,3.00
2018-06-03T17:07:23.009Z,3.50
2018-06-03T17:09:51.165Z,3.17
2018-06-03T17:12:19.355Z,3.43
2018-06-03T17:14:47.587Z,3.70
2018-06-03T17:17:15.757Z,3.50
2018-06-03T17:19:43.899Z,4.40
2018-06-03T17:22:12.060Z,3.97
2018-06-03T17:24:40.239Z,4.08
2018-06-03T17:27:08.384Z,3.50
2018-06-03T17:29:36.549Z,3.77
2018-06-03T17:32:04.720Z,3.93
2018-06-03T17:34:32.904Z,3.30
2018-06-03T17:37:01.142Z,3.47
2018-06-03T17:39:29.103Z,3.52
2018-06-03T17:41:57.245Z,3.10
2018-06-03T17:44:25.438Z,4.10
2018-06-03T17:46:53.611Z,3.30
2018-06-03T17:49:21.776Z,3.90
2018-06-03T17:51:49.914Z,3.27
2018-06-03T17:54:18.066Z,3.40
2018-06-03T17:56:46.359Z,3.17
2018-06-03T17:59:14.545Z,3.70
2018-06-03T18:01:42.685Z,3.60
2018-06-03T18:04:10.866Z,3.10
2018-06-03T18:06:39.020Z,3.27
2018-06-03T18:09:08.284Z,2.90
2018-06-03T18:11:36.480Z,3.30
2018-06-03T18:14:05.028Z,3.20
2018-06-03T18:16:33.227Z,3.67
2018-06-03T18:19:01.484Z,3.30
2018-06-03T18:21:29.705Z,3.00
2018-06-03T18:23:57.911Z,3.20
2018-06-03T18:26:26.076Z,3.60
2018-06-03T18:28:54.303Z,3.13
2018-06-03T18:31:22.499Z,3.73
2018-06-03T18:33:50.656Z,3.60
2018-06-03T18:36:18.896Z,4.10
2018-06-03T18:38:47.079Z,3.30
2018-06-03T18:41:15.281Z,3.30
2018-06-03T18:43:43.485Z,3.80
2018-06-03T18:46:11.415Z,4.17
2018-06-03T18:48:39.571Z,3.80
2018-06-03T18:51:07.755Z,3.53
2018-06-03T18:53:35.941Z,3.87
2018-06-03T18:56:04.122Z,3.50
2018-06-03T18:58:32.301Z,3.77
2018-06-03T19:01:00.563Z,3.90
2018-06-03T19:03:28.756Z,3.53
2018-06-03T19:05:57.002Z,3.53
2018-06-03T19:08:26.408Z,3.70
2018-06-03T19:10:54.711Z,3.87
2018-06-03T19:13:22.946Z,3.85
2018-06-03T19:15:51.136Z,3.80
2018-06-03T19:18:19.311Z,3.97
2018-06-03T19:20:47.497Z,4.10
2018-06-03T19:23:15.667Z,3.60
2018-06-03T19:25:43.848Z,3.43
2018-06-03T19:28:12.050Z,3.40
2018-06-03T19:30:40.351Z,4.20
2018-06-03T19:33:08.706Z,3.70
2018-06-03T19:35:36.958Z,3.83
2018-06-03T19:38:05.115Z,3.50
2018-06-03T19:40:33.355Z,3.83
2018-06-03T19:43:01.492Z,4.17
2018-06-03T19:45:30.271Z,3.90
2018-06-03T19:47:58.266Z,3.80
2018-06-03T19:50:26.602Z,3.60
2018-06-03T19:52:54.784Z,4.20
2018-06-03T19:55:23.030Z,3.73
2018-06-03T19:57:51.218Z,3.90
2018-06-03T20:00:19.379Z,4.50
2018-06-03T20:02:47.562Z,4.20
2018-06-03T20:05:15.703Z,4.10
2018-06-03T20:07:43.930Z,4.43
2018-06-03T20:10:12.155Z,4.00
2018-06-03T20:12:40.343Z,4.43
2018-06-03T20:15:08.567Z,3.77
2018-06-03T20:17:36.833Z,4.10
2018-06-03T20:20:06.101Z,4.07
2018-06-03T20:22:34.312Z,4.17
2018-06-03T20:25:02.552Z,5.40
2018-06-03T20:27:30.915Z,4.77
2018-06-03T20:29:59.071Z,5.75
2018-06-03T20:32:27.389Z,5.60
2018-06-03T20:34:55.621Z,3.90
2018-06-03T20:37:24.009Z,4.30
2018-06-03T20:39:52.197Z,5.30
2018-06-03T20:42:20.403Z,4.57
2018-06-03T20:44:48.596Z,4.37
2018-06-03T20:47:16.778Z,4.10
2018-06-03T20:49:44.938Z,3.70
2018-06-03T20:52:13.209Z,3.67
2018-06-03T20:54:41.418Z,4.97
2018-06-03T20:57:09.591Z,4.00
2018-06-03T20:59:37.759Z,4.50
2018-06-03T21:09:06.020Z,4.17
2018-06-03T21:11:34.334Z,4.50
2018-06-03T21:14:02.574Z,4.20
2018-06-03T21:16:30.987Z,4.08
2018-06-03T21:18:59.181Z,4.23
2018-06-03T21:21:27.375Z,4.27
2018-06-03T21:23:55.289Z,3.80
2018-06-03T21:26:23.500Z,4.13
2018-06-03T21:28:51.691Z,4.27
2018-06-03T21:31:19.842Z,3.80
2018-06-03T21:33:48.027Z,3.77
2018-06-03T21:36:15.975Z,4.80
2018-06-03T21:38:44.171Z,4.07
2018-06-03T21:41:12.119Z,4.15
2018-06-03T21:43:40.290Z,3.90
2018-06-03T21:46:08.510Z,4.37
2018-06-03T21:48:36.664Z,3.95
2018-06-03T21:51:04.598Z,4.47
2018-06-03T21:53:32.804Z,4.43
2018-06-03T21:56:00.975Z,4.43
2018-06-03T21:58:29.231Z,4.33
2018-06-03T22:00:57.336Z,4.07
2018-06-03T22:03:25.507Z,4.20
2018-06-03T22:05:53.684Z,4.17
2018-06-03T22:08:21.865Z,4.20
2018-06-03T22:10:50.047Z,4.50
2018-06-03T22:13:18.207Z,4.33
2018-06-03T22:15:46.137Z,4.25
2018-06-03T22:18:14.366Z,4.23
2018-06-03T22:20:42.467Z,4.10
2018-06-03T22:23:10.630Z,3.93
2018-06-03T22:25:38.768Z,5.07
2018-06-03T22:28:06.955Z,4.60
2018-06-03T22:30:35.104Z,4.80
2018-06-03T22:33:03.056Z,4.50
2018-06-03T22:35:31.175Z,4.47
2018-06-03T22:37:59.348Z,4.70
2018-06-03T22:40:27.538Z,5.20
2018-06-03T22:42:56.234Z,4.83
2018-06-03T22:45:24.396Z,4.80
2018-06-03T22:47:52.582Z,4.50
2018-06-03T22:50:20.783Z,4.90
2018-06-03T22:52:48.965Z,4.83
2018-06-03T22:55:17.123Z,4.78
2018-06-03T22:57:49.319Z,3.80
2018-06-03T23:00:29.081Z,4.33
2018-06-03T23:03:02.711Z,4.73
2018-06-03T23:05:30.932Z,4.10
2018-06-03T23:07:59.165Z,4.57
2018-06-03T23:10:27.301Z,4.80
2018-06-03T23:12:55.556Z,3.90
2018-06-03T23:15:23.834Z,4.90
2018-06-03T23:17:52.001Z,5.10
2018-06-03T23:20:20.211Z,5.50
2018-06-03T23:22:48.310Z,4.77
2018-06-03T23:25:16.504Z,4.80
2018-06-03T23:27:44.654Z,4.87
2018-06-03T23:30:12.791Z,4.80
2018-06-03T23:32:40.940Z,5.10
2018-06-03T23:35:09.083Z,5.27
2018-06-03T23:37:37.235Z,5.28
2018-06-03T23:40:05.400Z,4.50
2018-06-03T23:42:33.525Z,4.80
2018-06-03T23:45:01.692Z,5.17
2018-06-03T23:47:29.832Z,4.50
2018-06-03T23:49:58.017Z,4.80
2018-06-03T23:52:26.163Z,4.70
2018-06-03T23:54:54.119Z,5.17
2018-06-03T23:57:22.313Z,4.40
2018-06-03T23:59:50.416Z,5.20
